sensor_id;sensor_type;location;lat;lon;timestamp;P1;durP1;ratioP1;P2;durP2;ratioP2
4810;SDS011;2419;51.276;6.472;2023-01-26T00:02:03;13.67;;;6.67;;
4810;SDS011;2419;51.276;6.472;2023-01-26T00:04:32;12.43;;;6.37;;
4810;SDS011;2419;51.276;6.472;2023-01-26T00:07:00;10.57;;;8.40;;
4810;SDS011;2419;51.276;6.472;2023-01-26T00:09:30;7.00;;;5.23;;
4810;SDS011;2419;51.276;6.472;2023-01-26T00:11:59;13.70;;;8.17;;
4810;SDS011;2419;51.276;6.472;2023-01-26T00:14:27;21.80;;;10.17;;
4810;SDS011;2419;51.276;6.472;2023-01-26T00:17:18;25.20;;;9.00;;
4810;SDS011;2419;51.276;6.472;2023-01-26T00:19:56;25.90;;;8.77;;
4810;SDS011;2419;51.276;6.472;2023-01-26T00:22:25;17.40;;;6.10;;
4810;SDS011;2419;51.276;6.472;2023-01-26T00:24:54;23.70;;;7.33;;
4810;SDS011;2419;51.276;6.472;2023-01-26T00:27:23;29.10;;;10.17;;
4810;SDS011;2419;51.276;6.472;2023-01-26T00:29:51;11.40;;;6.47;;
4810;SDS011;2419;51.276;6.472;2023-01-26T00:32:20;27.87;;;6.23;;
4810;SDS011;2419;51.276;6.472;2023-01-26T00:34:48;13.57;;;7.23;;
4810;SDS011;2419;51.276;6.472;2023-01-26T00:37:16;31.87;;;6.80;;
4810;SDS011;2419;51.276;6.472;2023-01-26T00:39:44;27.07;;;9.17;;
4810;SDS011;2419;51.276;6.472;2023-01-26T00:42:12;23.40;;;8.30;;
4810;SDS011;2419;51.276;6.472;2023-01-26T00:44:42;17.23;;;9.33;;
4810;SDS011;2419;51.276;6.472;2023-01-26T00:47:12;30.53;;;8.13;;
4810;SDS011;2419;51.276;6.472;2023-01-26T00:49:40;29.73;;;9.47;;
4810;SDS011;2419;51.276;6.472;2023-01-26T00:52:09;22.20;;;8.83;;
4810;SDS011;2419;51.276;6.472;2023-01-26T00:54:37;21.00;;;8.87;;
4810;SDS011;2419;51.276;6.472;2023-01-26T00:57:05;30.67;;;12.07;;
4810;SDS011;2419;51.276;6.472;2023-01-26T00:59:34;15.00;;;6.87;;
4810;SDS011;2419;51.276;6.472;2023-01-26T01:02:03;16.47;;;7.97;;
4810;SDS011;2419;51.276;6.472;2023-01-26T01:04:31;28.47;;;8.67;;
4810;SDS011;2419;51.276;6.472;2023-01-26T01:06:59;23.00;;;9.27;;
4810;SDS011;2419;51.276;6.472;2023-01-26T01:09:27;12.70;;;6.37;;
4810;SDS011;2419;51.276;6.472;2023-01-26T01:11:55;20.20;;;9.67;;
4810;SDS011;2419;51.276;6.472;2023-01-26T01:14:23;32.30;;;11.97;;
4810;SDS011;2419;51.276;6.472;2023-01-26T01:16:51;23.33;;;7.40;;
4810;SDS011;2419;51.276;6.472;2023-01-26T01:19:21;12.67;;;5.27;;
4810;SDS011;2419;51.276;6.472;2023-01-26T01:21:49;11.07;;;8.20;;
4810;SDS011;2419;51.276;6.472;2023-01-26T01:24:18;22.97;;;7.63;;
4810;SDS011;2419;51.276;6.472;2023-01-26T01:26:46;13.93;;;8.00;;
4810;SDS011;2419;51.276;6.472;2023-01-26T01:29:14;15.77;;;8.87;;
4810;SDS011;2419;51.276;6.472;2023-01-26T01:31:42;27.97;;;11.10;;
4810;SDS011;2419;51.276;6.472;2023-01-26T01:34:10;22.13;;;8.73;;
4810;SDS011;2419;51.276;6.472;2023-01-26T01:36:40;18.30;;;9.03;;
4810;SDS011;2419;51.276;6.472;2023-01-26T01:39:08;16.83;;;7.63;;
4810;SDS011;2419;51.276;6.472;2023-01-26T01:41:36;10.57;;;7.47;;
4810;SDS011;2419;51.276;6.472;2023-01-26T01:44:11;26.67;;;9.40;;
4810;SDS011;2419;51.276;6.472;2023-01-26T01:46:42;14.20;;;7.60;;
4810;SDS011;2419;51.276;6.472;2023-01-26T01:49:15;22.27;;;9.17;;
4810;SDS011;2419;51.276;6.472;2023-01-26T01:51:49;16.33;;;9.80;;
4810;SDS011;2419;51.276;6.472;2023-01-26T01:54:21;24.60;;;9.00;;
4810;SDS011;2419;51.276;6.472;2023-01-26T01:56:56;10.53;;;6.13;;
4810;SDS011;2419;51.276;6.472;2023-01-26T01:59:29;22.40;;;8.80;;
4810;SDS011;2419;51.276;6.472;2023-01-26T02:01:58;14.40;;;6.90;;
4810;SDS011;2419;51.276;6.472;2023-01-26T02:04:27;15.03;;;7.67;;
4810;SDS011;2419;51.276;6.472;2023-01-26T02:06:57;18.50;;;9.03;;
4810;SDS011;2419;51.276;6.472;2023-01-26T02:09:30;17.80;;;8.40;;
4810;SDS011;2419;51.276;6.472;2023-01-26T02:12:16;21.60;;;8.40;;
4810;SDS011;2419;51.276;6.472;2023-01-26T02:14:50;18.67;;;8.80;;
4810;SDS011;2419;51.276;6.472;2023-01-26T02:17:20;20.80;;;6.00;;
4810;SDS011;2419;51.276;6.472;2023-01-26T02:19:49;20.63;;;7.90;;
4810;SDS011;2419;51.276;6.472;2023-01-26T02:22:27;9.73;;;5.03;;
4810;SDS011;2419;51.276;6.472;2023-01-26T02:25:06;20.27;;;9.30;;
4810;SDS011;2419;51.276;6.472;2023-01-26T02:27:41;14.13;;;6.97;;
4810;SDS011;2419;51.276;6.472;2023-01-26T02:30:10;35.83;;;8.50;;
4810;SDS011;2419;51.276;6.472;2023-01-26T02:32:39;22.57;;;7.20;;
4810;SDS011;2419;51.276;6.472;2023-01-26T02:35:08;19.83;;;9.23;;
4810;SDS011;2419;51.276;6.472;2023-01-26T02:37:36;22.67;;;9.87;;
4810;SDS011;2419;51.276;6.472;2023-01-26T02:40:06;18.50;;;9.03;;
4810;SDS011;2419;51.276;6.472;2023-01-26T02:42:41;23.53;;;6.67;;
4810;SDS011;2419;51.276;6.472;2023-01-26T02:45:10;17.57;;;9.00;;
4810;SDS011;2419;51.276;6.472;2023-01-26T02:47:41;20.80;;;7.97;;
4810;SDS011;2419;51.276;6.472;2023-01-26T02:50:10;13.10;;;9.07;;
4810;SDS011;2419;51.276;6.472;2023-01-26T02:52:40;33.63;;;7.13;;
4810;SDS011;2419;51.276;6.472;2023-01-26T02:55:15;24.67;;;10.10;;
4810;SDS011;2419;51.276;6.472;2023-01-26T02:57:50;17.97;;;7.80;;
4810;SDS011;2419;51.276;6.472;2023-01-26T03:00:21;22.50;;;8.20;;
4810;SDS011;2419;51.276;6.472;2023-01-26T03:02:51;18.03;;;7.00;;
4810;SDS011;2419;51.276;6.472;2023-01-26T03:05:22;20.17;;;7.10;;
4810;SDS011;2419;51.276;6.472;2023-01-26T03:07:51;21.40;;;8.87;;
4810;SDS011;2419;51.276;6.472;2023-01-26T03:10:22;19.97;;;7.23;;
4810;SDS011;2419;51.276;6.472;2023-01-26T03:12:53;16.67;;;6.97;;
4810;SDS011;2419;51.276;6.472;2023-01-26T03:15:21;22.33;;;7.97;;
4810;SDS011;2419;51.276;6.472;2023-01-26T03:18:10;23.23;;;8.50;;
4810;SDS011;2419;51.276;6.472;2023-01-26T03:20:57;21.07;;;8.53;;
4810;SDS011;2419;51.276;6.472;2023-01-26T03:23:44;20.90;;;8.90;;
4810;SDS011;2419;51.276;6.472;2023-01-26T03:26:31;22.07;;;10.97;;
4810;SDS011;2419;51.276;6.472;2023-01-26T03:29:18;21.90;;;7.20;;
4810;SDS011;2419;51.276;6.472;2023-01-26T03:31:47;20.77;;;7.60;;
4810;SDS011;2419;51.276;6.472;2023-01-26T03:34:16;8.47;;;4.10;;
4810;SDS011;2419;51.276;6.472;2023-01-26T03:36:46;20.53;;;8.20;;
4810;SDS011;2419;51.276;6.472;2023-01-26T03:39:16;18.50;;;6.27;;
4810;SDS011;2419;51.276;6.472;2023-01-26T03:42:03;13.30;;;7.10;;
4810;SDS011;2419;51.276;6.472;2023-01-26T03:44:50;25.63;;;7.17;;
4810;SDS011;2419;51.276;6.472;2023-01-26T03:47:39;23.27;;;7.93;;
4810;SDS011;2419;51.276;6.472;2023-01-26T03:50:24;19.80;;;7.93;;
4810;SDS011;2419;51.276;6.472;2023-01-26T03:53:13;33.63;;;8.67;;
4810;SDS011;2419;51.276;6.472;2023-01-26T03:56:01;17.53;;;6.70;;
4810;SDS011;2419;51.276;6.472;2023-01-26T03:58:50;18.07;;;7.47;;
4810;SDS011;2419;51.276;6.472;2023-01-26T04:01:23;28.67;;;6.57;;
4810;SDS011;2419;51.276;6.472;2023-01-26T04:03:55;29.10;;;9.13;;
4810;SDS011;2419;51.276;6.472;2023-01-26T04:06:43;25.10;;;7.80;;
4810;SDS011;2419;51.276;6.472;2023-01-26T04:09:31;21.43;;;7.80;;
4810;SDS011;2419;51.276;6.472;2023-01-26T04:11:59;39.10;;;8.80;;
4810;SDS011;2419;51.276;6.472;2023-01-26T04:14:28;13.50;;;6.80;;
4810;SDS011;2419;51.276;6.472;2023-01-26T04:17:21;23.30;;;9.73;;
4810;SDS011;2419;51.276;6.472;2023-01-26T04:20:07;17.00;;;7.13;;
4810;SDS011;2419;51.276;6.472;2023-01-26T04:22:54;24.90;;;6.70;;
4810;SDS011;2419;51.276;6.472;2023-01-26T04:25:22;24.00;;;9.20;;
4810;SDS011;2419;51.276;6.472;2023-01-26T04:27:50;29.20;;;9.87;;
4810;SDS011;2419;51.276;6.472;2023-01-26T04:30:18;11.50;;;7.17;;
4810;SDS011;2419;51.276;6.472;2023-01-26T04:32:48;17.10;;;7.20;;
4810;SDS011;2419;51.276;6.472;2023-01-26T04:35:18;27.30;;;7.90;;
4810;SDS011;2419;51.276;6.472;2023-01-26T04:37:46;31.23;;;8.67;;
4810;SDS011;2419;51.276;6.472;2023-01-26T04:40:15;19.90;;;9.10;;
4810;SDS011;2419;51.276;6.472;2023-01-26T04:42:44;24.07;;;9.57;;
4810;SDS011;2419;51.276;6.472;2023-01-26T04:45:12;17.63;;;5.57;;
4810;SDS011;2419;51.276;6.472;2023-01-26T04:47:42;20.87;;;7.70;;
4810;SDS011;2419;51.276;6.472;2023-01-26T04:50:13;17.03;;;8.77;;
4810;SDS011;2419;51.276;6.472;2023-01-26T04:52:45;29.03;;;8.90;;
4810;SDS011;2419;51.276;6.472;2023-01-26T04:55:14;21.63;;;8.40;;
4810;SDS011;2419;51.276;6.472;2023-01-26T04:57:42;13.80;;;7.67;;
4810;SDS011;2419;51.276;6.472;2023-01-26T05:00:11;15.73;;;6.40;;
4810;SDS011;2419;51.276;6.472;2023-01-26T05:02:40;14.50;;;5.73;;
4810;SDS011;2419;51.276;6.472;2023-01-26T05:05:08;41.23;;;9.47;;
4810;SDS011;2419;51.276;6.472;2023-01-26T05:07:39;21.97;;;6.77;;
4810;SDS011;2419;51.276;6.472;2023-01-26T05:10:07;21.33;;;6.57;;
4810;SDS011;2419;51.276;6.472;2023-01-26T05:12:50;24.20;;;6.40;;
4810;SDS011;2419;51.276;6.472;2023-01-26T05:15:37;27.17;;;6.70;;
4810;SDS011;2419;51.276;6.472;2023-01-26T05:18:13;28.97;;;10.00;;
4810;SDS011;2419;51.276;6.472;2023-01-26T05:21:03;17.20;;;8.73;;
4810;SDS011;2419;51.276;6.472;2023-01-26T05:23:42;22.87;;;5.60;;
4810;SDS011;2419;51.276;6.472;2023-01-26T05:26:26;21.97;;;7.77;;
4810;SDS011;2419;51.276;6.472;2023-01-26T05:28:57;10.77;;;5.83;;
4810;SDS011;2419;51.276;6.472;2023-01-26T05:31:25;24.67;;;7.40;;
4810;SDS011;2419;51.276;6.472;2023-01-26T05:33:54;24.23;;;5.67;;
4810;SDS011;2419;51.276;6.472;2023-01-26T05:36:22;24.33;;;7.20;;
4810;SDS011;2419;51.276;6.472;2023-01-26T05:38:52;17.13;;;6.30;;
4810;SDS011;2419;51.276;6.472;2023-01-26T05:41:23;20.77;;;7.33;;
4810;SDS011;2419;51.276;6.472;2023-01-26T05:44:06;11.73;;;7.27;;
4810;SDS011;2419;51.276;6.472;2023-01-26T05:46:46;16.83;;;5.97;;
4810;SDS011;2419;51.276;6.472;2023-01-26T05:49:15;16.30;;;7.03;;
4810;SDS011;2419;51.276;6.472;2023-01-26T05:51:43;13.57;;;6.70;;
4810;SDS011;2419;51.276;6.472;2023-01-26T05:54:14;8.97;;;5.17;;
4810;SDS011;2419;51.276;6.472;2023-01-26T05:56:42;13.43;;;3.77;;
4810;SDS011;2419;51.276;6.472;2023-01-26T05:59:11;19.93;;;8.73;;
4810;SDS011;2419;51.276;6.472;2023-01-26T06:01:41;15.00;;;8.30;;
4810;SDS011;2419;51.276;6.472;2023-01-26T06:04:10;27.13;;;7.20;;
4810;SDS011;2419;51.276;6.472;2023-01-26T06:06:51;22.17;;;7.13;;
4810;SDS011;2419;51.276;6.472;2023-01-26T06:09:24;20.80;;;7.60;;
4810;SDS011;2419;51.276;6.472;2023-01-26T06:12:12;20.67;;;5.73;;
4810;SDS011;2419;51.276;6.472;2023-01-26T06:14:58;21.20;;;5.90;;
4810;SDS011;2419;51.276;6.472;2023-01-26T06:17:52;16.33;;;5.50;;
4810;SDS011;2419;51.276;6.472;2023-01-26T06:20:20;17.33;;;7.40;;
4810;SDS011;2419;51.276;6.472;2023-01-26T06:22:58;25.60;;;7.00;;
4810;SDS011;2419;51.276;6.472;2023-01-26T06:25:29;13.37;;;4.70;;
4810;SDS011;2419;51.276;6.472;2023-01-26T06:27:57;18.57;;;6.10;;
4810;SDS011;2419;51.276;6.472;2023-01-26T06:30:26;14.63;;;6.10;;
4810;SDS011;2419;51.276;6.472;2023-01-26T06:32:59;11.20;;;6.43;;
4810;SDS011;2419;51.276;6.472;2023-01-26T06:35:29;10.13;;;5.40;;
4810;SDS011;2419;51.276;6.472;2023-01-26T06:38:00;14.17;;;6.60;;
4810;SDS011;2419;51.276;6.472;2023-01-26T06:40:29;17.77;;;6.47;;
4810;SDS011;2419;51.276;6.472;2023-01-26T06:42:57;13.70;;;5.17;;
4810;SDS011;2419;51.276;6.472;2023-01-26T06:45:26;18.27;;;7.60;;
4810;SDS011;2419;51.276;6.472;2023-01-26T06:47:54;16.23;;;5.80;;
4810;SDS011;2419;51.276;6.472;2023-01-26T06:50:24;13.27;;;8.07;;
4810;SDS011;2419;51.276;6.472;2023-01-26T06:52:58;19.57;;;6.53;;
4810;SDS011;2419;51.276;6.472;2023-01-26T06:55:41;15.03;;;6.30;;
4810;SDS011;2419;51.276;6.472;2023-01-26T06:58:28;17.30;;;6.13;;
4810;SDS011;2419;51.276;6.472;2023-01-26T07:01:05;11.47;;;6.37;;
4810;SDS011;2419;51.276;6.472;2023-01-26T07:03:33;17.77;;;6.30;;
4810;SDS011;2419;51.276;6.472;2023-01-26T07:06:02;10.93;;;5.43;;
4810;SDS011;2419;51.276;6.472;2023-01-26T07:08:31;17.23;;;6.67;;
4810;SDS011;2419;51.276;6.472;2023-01-26T07:11:00;6.43;;;3.53;;
4810;SDS011;2419;51.276;6.472;2023-01-26T07:13:28;14.37;;;5.60;;
4810;SDS011;2419;51.276;6.472;2023-01-26T07:15:59;10.27;;;5.20;;
4810;SDS011;2419;51.276;6.472;2023-01-26T07:18:28;15.03;;;5.70;;
4810;SDS011;2419;51.276;6.472;2023-01-26T07:20:58;18.20;;;6.40;;
4810;SDS011;2419;51.276;6.472;2023-01-26T07:23:27;15.37;;;5.70;;
4810;SDS011;2419;51.276;6.472;2023-01-26T07:25:56;12.77;;;5.63;;
4810;SDS011;2419;51.276;6.472;2023-01-26T07:28:26;19.50;;;6.40;;
4810;SDS011;2419;51.276;6.472;2023-01-26T07:30:56;9.07;;;4.00;;
4810;SDS011;2419;51.276;6.472;2023-01-26T07:33:24;26.73;;;7.90;;
4810;SDS011;2419;51.276;6.472;2023-01-26T07:35:52;14.50;;;7.50;;
4810;SDS011;2419;51.276;6.472;2023-01-26T07:38:20;15.80;;;5.13;;
4810;SDS011;2419;51.276;6.472;2023-01-26T07:40:49;17.40;;;7.97;;
4810;SDS011;2419;51.276;6.472;2023-01-26T07:43:18;27.83;;;7.00;;
4810;SDS011;2419;51.276;6.472;2023-01-26T07:45:48;18.67;;;9.03;;
4810;SDS011;2419;51.276;6.472;2023-01-26T07:48:18;19.80;;;6.27;;
4810;SDS011;2419;51.276;6.472;2023-01-26T07:50:47;18.20;;;7.97;;
4810;SDS011;2419;51.276;6.472;2023-01-26T07:53:16;16.27;;;8.03;;
4810;SDS011;2419;51.276;6.472;2023-01-26T07:55:46;22.93;;;7.17;;
4810;SDS011;2419;51.276;6.472;2023-01-26T07:58:15;16.17;;;6.70;;
4810;SDS011;2419;51.276;6.472;2023-01-26T08:00:44;13.53;;;6.97;;
4810;SDS011;2419;51.276;6.472;2023-01-26T08:03:14;11.13;;;5.47;;
4810;SDS011;2419;51.276;6.472;2023-01-26T08:05:42;12.63;;;6.03;;
4810;SDS011;2419;51.276;6.472;2023-01-26T08:08:11;18.37;;;4.03;;
4810;SDS011;2419;51.276;6.472;2023-01-26T08:10:39;19.83;;;5.70;;
4810;SDS011;2419;51.276;6.472;2023-01-26T08:13:07;21.07;;;6.60;;
4810;SDS011;2419;51.276;6.472;2023-01-26T08:15:35;10.57;;;5.37;;
4810;SDS011;2419;51.276;6.472;2023-01-26T08:18:03;12.23;;;7.53;;
4810;SDS011;2419;51.276;6.472;2023-01-26T08:20:33;12.47;;;5.57;;
4810;SDS011;2419;51.276;6.472;2023-01-26T08:23:02;17.37;;;6.40;;
4810;SDS011;2419;51.276;6.472;2023-01-26T08:25:30;10.43;;;7.80;;
4810;SDS011;2419;51.276;6.472;2023-01-26T08:27:59;20.13;;;6.20;;
4810;SDS011;2419;51.276;6.472;2023-01-26T08:30:28;17.83;;;6.17;;
4810;SDS011;2419;51.276;6.472;2023-01-26T08:32:56;17.00;;;7.03;;
4810;SDS011;2419;51.276;6.472;2023-01-26T08:35:24;22.17;;;7.40;;
4810;SDS011;2419;51.276;6.472;2023-01-26T08:37:54;9.13;;;4.93;;
4810;SDS011;2419;51.276;6.472;2023-01-26T08:40:22;17.23;;;6.23;;
4810;SDS011;2419;51.276;6.472;2023-01-26T08:42:51;17.13;;;6.37;;
4810;SDS011;2419;51.276;6.472;2023-01-26T08:45:19;27.83;;;6.37;;
4810;SDS011;2419;51.276;6.472;2023-01-26T08:47:48;20.30;;;7.83;;
4810;SDS011;2419;51.276;6.472;2023-01-26T08:50:17;19.33;;;6.60;;
4810;SDS011;2419;51.276;6.472;2023-01-26T08:52:45;20.00;;;7.77;;
4810;SDS011;2419;51.276;6.472;2023-01-26T08:55:14;23.67;;;5.93;;
4810;SDS011;2419;51.276;6.472;2023-01-26T08:57:43;16.23;;;7.10;;
4810;SDS011;2419;51.276;6.472;2023-01-26T09:00:13;23.70;;;7.33;;
4810;SDS011;2419;51.276;6.472;2023-01-26T09:02:42;12.13;;;5.40;;
4810;SDS011;2419;51.276;6.472;2023-01-26T09:05:10;11.47;;;5.63;;
4810;SDS011;2419;51.276;6.472;2023-01-26T09:07:38;19.10;;;6.47;;
4810;SDS011;2419;51.276;6.472;2023-01-26T09:10:06;14.43;;;6.67;;
4810;SDS011;2419;51.276;6.472;2023-01-26T09:12:37;14.23;;;5.20;;
4810;SDS011;2419;51.276;6.472;2023-01-26T09:15:07;15.73;;;7.80;;
4810;SDS011;2419;51.276;6.472;2023-01-26T09:17:35;25.73;;;7.97;;
4810;SDS011;2419;51.276;6.472;2023-01-26T09:20:04;19.57;;;5.50;;
4810;SDS011;2419;51.276;6.472;2023-01-26T09:22:35;9.27;;;6.60;;
4810;SDS011;2419;51.276;6.472;2023-01-26T09:25:04;15.37;;;5.77;;
4810;SDS011;2419;51.276;6.472;2023-01-26T09:27:33;15.77;;;6.20;;
4810;SDS011;2419;51.276;6.472;2023-01-26T09:30:05;10.60;;;3.60;;
4810;SDS011;2419;51.276;6.472;2023-01-26T09:32:35;23.73;;;7.47;;
4810;SDS011;2419;51.276;6.472;2023-01-26T09:35:03;13.80;;;5.27;;
4810;SDS011;2419;51.276;6.472;2023-01-26T09:37:40;21.83;;;6.40;;
4810;SDS011;2419;51.276;6.472;2023-01-26T09:40:12;21.63;;;8.20;;
4810;SDS011;2419;51.276;6.472;2023-01-26T09:42:52;9.93;;;5.17;;
4810;SDS011;2419;51.276;6.472;2023-01-26T09:45:34;5.10;;;3.87;;
4810;SDS011;2419;51.276;6.472;2023-01-26T09:48:10;20.43;;;5.77;;
4810;SDS011;2419;51.276;6.472;2023-01-26T09:50:50;12.90;;;5.40;;
4810;SDS011;2419;51.276;6.472;2023-01-26T09:53:25;12.07;;;5.90;;
4810;SDS011;2419;51.276;6.472;2023-01-26T09:55:57;8.27;;;3.87;;
4810;SDS011;2419;51.276;6.472;2023-01-26T09:58:28;16.70;;;5.20;;
4810;SDS011;2419;51.276;6.472;2023-01-26T10:01:03;18.10;;;6.03;;
4810;SDS011;2419;51.276;6.472;2023-01-26T10:03:40;20.10;;;7.30;;
4810;SDS011;2419;51.276;6.472;2023-01-26T10:06:13;12.20;;;4.30;;
4810;SDS011;2419;51.276;6.472;2023-01-26T10:09:05;12.07;;;4.93;;
4810;SDS011;2419;51.276;6.472;2023-01-26T10:11:39;8.77;;;4.70;;
4810;SDS011;2419;51.276;6.472;2023-01-26T10:14:11;8.10;;;2.90;;
4810;SDS011;2419;51.276;6.472;2023-01-26T10:16:44;8.73;;;4.80;;
4810;SDS011;2419;51.276;6.472;2023-01-26T10:19:15;13.67;;;4.20;;
4810;SDS011;2419;51.276;6.472;2023-01-26T10:21:49;23.37;;;4.80;;
4810;SDS011;2419;51.276;6.472;2023-01-26T10:24:20;19.90;;;6.63;;
4810;SDS011;2419;51.276;6.472;2023-01-26T10:26:50;7.47;;;4.53;;
4810;SDS011;2419;51.276;6.472;2023-01-26T10:29:22;9.77;;;4.03;;
4810;SDS011;2419;51.276;6.472;2023-01-26T10:31:52;7.57;;;3.63;;
4810;SDS011;2419;51.276;6.472;2023-01-26T10:34:22;5.70;;;4.33;;
4810;SDS011;2419;51.276;6.472;2023-01-26T10:36:52;11.17;;;5.50;;
4810;SDS011;2419;51.276;6.472;2023-01-26T10:39:29;7.90;;;4.63;;
4810;SDS011;2419;51.276;6.472;2023-01-26T10:41:58;10.33;;;5.10;;
4810;SDS011;2419;51.276;6.472;2023-01-26T10:44:31;7.40;;;4.83;;
4810;SDS011;2419;51.276;6.472;2023-01-26T10:47:03;6.17;;;3.77;;
4810;SDS011;2419;51.276;6.472;2023-01-26T10:49:33;8.17;;;3.33;;
4810;SDS011;2419;51.276;6.472;2023-01-26T10:52:06;11.33;;;4.47;;
4810;SDS011;2419;51.276;6.472;2023-01-26T10:54:41;4.80;;;2.40;;
4810;SDS011;2419;51.276;6.472;2023-01-26T10:57:13;3.30;;;2.30;;
4810;SDS011;2419;51.276;6.472;2023-01-26T10:59:52;5.00;;;4.30;;
4810;SDS011;2419;51.276;6.472;2023-01-26T11:02:36;8.60;;;3.90;;
4810;SDS011;2419;51.276;6.472;2023-01-26T11:05:14;5.40;;;3.40;;
4810;SDS011;2419;51.276;6.472;2023-01-26T11:07:47;4.70;;;2.90;;
4810;SDS011;2419;51.276;6.472;2023-01-26T11:10:21;6.47;;;2.93;;
4810;SDS011;2419;51.276;6.472;2023-01-26T11:13:05;7.00;;;4.80;;
4810;SDS011;2419;51.276;6.472;2023-01-26T11:15:42;6.93;;;2.70;;
4810;SDS011;2419;51.276;6.472;2023-01-26T11:18:26;4.40;;;2.30;;
4810;SDS011;2419;51.276;6.472;2023-01-26T11:21:01;2.80;;;2.60;;
4810;SDS011;2419;51.276;6.472;2023-01-26T11:23:42;3.23;;;2.63;;
4810;SDS011;2419;51.276;6.472;2023-01-26T11:26:30;2.60;;;2.40;;
4810;SDS011;2419;51.276;6.472;2023-01-26T11:29:16;7.50;;;4.00;;
4810;SDS011;2419;51.276;6.472;2023-01-26T11:31:58;3.30;;;2.57;;
4810;SDS011;2419;51.276;6.472;2023-01-26T11:34:36;8.73;;;2.90;;
4810;SDS011;2419;51.276;6.472;2023-01-26T11:37:23;8.07;;;4.37;;
4810;SDS011;2419;51.276;6.472;2023-01-26T11:40:12;4.30;;;3.00;;
4810;SDS011;2419;51.276;6.472;2023-01-26T11:42:56;11.40;;;3.90;;
4810;SDS011;2419;51.276;6.472;2023-01-26T11:46:04;4.50;;;2.60;;
4810;SDS011;2419;51.276;6.472;2023-01-26T11:48:43;4.57;;;2.80;;
4810;SDS011;2419;51.276;6.472;2023-01-26T11:51:26;8.27;;;4.10;;
4810;SDS011;2419;51.276;6.472;2023-01-26T11:54:10;6.33;;;2.00;;
4810;SDS011;2419;51.276;6.472;2023-01-26T11:56:58;3.70;;;2.90;;
4810;SDS011;2419;51.276;6.472;2023-01-26T11:59:35;8.40;;;3.07;;
4810;SDS011;2419;51.276;6.472;2023-01-26T12:02:14;8.70;;;3.67;;
4810;SDS011;2419;51.276;6.472;2023-01-26T12:04:53;11.27;;;3.37;;
4810;SDS011;2419;51.276;6.472;2023-01-26T12:07:26;6.57;;;2.63;;
4810;SDS011;2419;51.276;6.472;2023-01-26T12:09:57;9.67;;;3.07;;
4810;SDS011;2419;51.276;6.472;2023-01-26T12:12:29;4.20;;;2.20;;
4810;SDS011;2419;51.276;6.472;2023-01-26T12:15:05;7.83;;;3.47;;
4810;SDS011;2419;51.276;6.472;2023-01-26T12:17:42;3.40;;;2.73;;
4810;SDS011;2419;51.276;6.472;2023-01-26T12:20:24;2.47;;;1.60;;
4810;SDS011;2419;51.276;6.472;2023-01-26T12:22:59;4.63;;;2.10;;
4810;SDS011;2419;51.276;6.472;2023-01-26T12:25:31;4.20;;;2.80;;
4810;SDS011;2419;51.276;6.472;2023-01-26T12:28:04;4.60;;;2.60;;
4810;SDS011;2419;51.276;6.472;2023-01-26T12:30:40;5.43;;;3.20;;
4810;SDS011;2419;51.276;6.472;2023-01-26T12:33:14;2.33;;;2.03;;
4810;SDS011;2419;51.276;6.472;2023-01-26T12:35:47;2.63;;;2.40;;
4810;SDS011;2419;51.276;6.472;2023-01-26T12:38:27;4.13;;;3.23;;
4810;SDS011;2419;51.276;6.472;2023-01-26T12:41:05;7.50;;;3.23;;
4810;SDS011;2419;51.276;6.472;2023-01-26T12:43:44;5.77;;;2.53;;
4810;SDS011;2419;51.276;6.472;2023-01-26T12:46:23;7.17;;;4.10;;
4810;SDS011;2419;51.276;6.472;2023-01-26T12:48:55;4.67;;;3.10;;
4810;SDS011;2419;51.276;6.472;2023-01-26T12:51:30;4.17;;;2.37;;
4810;SDS011;2419;51.276;6.472;2023-01-26T12:54:04;7.83;;;4.57;;
4810;SDS011;2419;51.276;6.472;2023-01-26T12:56:41;5.70;;;2.87;;
4810;SDS011;2419;51.276;6.472;2023-01-26T12:59:14;6.47;;;3.80;;
4810;SDS011;2419;51.276;6.472;2023-01-26T13:02:19;9.23;;;3.90;;
4810;SDS011;2419;51.276;6.472;2023-01-26T13:04:52;7.10;;;3.97;;
4810;SDS011;2419;51.276;6.472;2023-01-26T13:07:25;7.70;;;3.53;;
4810;SDS011;2419;51.276;6.472;2023-01-26T13:12:52;9.20;;;3.53;;
4810;SDS011;2419;51.276;6.472;2023-01-26T13:15:22;5.43;;;3.10;;
4810;SDS011;2419;51.276;6.472;2023-01-26T13:17:53;9.03;;;4.37;;
4810;SDS011;2419;51.276;6.472;2023-01-26T13:26:18;8.37;;;4.57;;
4810;SDS011;2419;51.276;6.472;2023-01-26T13:28:48;7.90;;;5.40;;
4810;SDS011;2419;51.276;6.472;2023-01-26T13:31:28;11.13;;;5.47;;
4810;SDS011;2419;51.276;6.472;2023-01-26T13:33:59;16.00;;;5.50;;
4810;SDS011;2419;51.276;6.472;2023-01-26T13:36:33;8.50;;;3.90;;
4810;SDS011;2419;51.276;6.472;2023-01-26T13:39:08;14.77;;;5.47;;
4810;SDS011;2419;51.276;6.472;2023-01-26T13:41:45;14.00;;;5.60;;
4810;SDS011;2419;51.276;6.472;2023-01-26T13:44:15;10.50;;;4.83;;
4810;SDS011;2419;51.276;6.472;2023-01-26T13:46:47;14.20;;;6.50;;
4810;SDS011;2419;51.276;6.472;2023-01-26T13:49:24;15.33;;;5.47;;
4810;SDS011;2419;51.276;6.472;2023-01-26T13:51:53;14.43;;;5.40;;
4810;SDS011;2419;51.276;6.472;2023-01-26T13:54:21;12.57;;;6.13;;
4810;SDS011;2419;51.276;6.472;2023-01-26T13:57:03;12.60;;;4.90;;
4810;SDS011;2419;51.276;6.472;2023-01-26T13:59:32;15.83;;;4.83;;
4810;SDS011;2419;51.276;6.472;2023-01-26T14:02:00;10.83;;;5.17;;
4810;SDS011;2419;51.276;6.472;2023-01-26T14:04:30;15.13;;;6.00;;
4810;SDS011;2419;51.276;6.472;2023-01-26T14:07:01;13.53;;;6.60;;
4810;SDS011;2419;51.276;6.472;2023-01-26T14:09:32;14.93;;;6.30;;
4810;SDS011;2419;51.276;6.472;2023-01-26T14:12:15;17.37;;;6.73;;
4810;SDS011;2419;51.276;6.472;2023-01-26T14:14:47;17.67;;;5.60;;
4810;SDS011;2419;51.276;6.472;2023-01-26T14:17:26;10.40;;;5.63;;
4810;SDS011;2419;51.276;6.472;2023-01-26T14:19:55;17.60;;;5.23;;
4810;SDS011;2419;51.276;6.472;2023-01-26T14:22:25;13.20;;;5.23;;
4810;SDS011;2419;51.276;6.472;2023-01-26T14:24:53;13.33;;;5.60;;
4810;SDS011;2419;51.276;6.472;2023-01-26T14:27:28;12.80;;;4.87;;
4810;SDS011;2419;51.276;6.472;2023-01-26T14:30:00;14.30;;;7.50;;
4810;SDS011;2419;51.276;6.472;2023-01-26T14:32:34;10.73;;;4.70;;
4810;SDS011;2419;51.276;6.472;2023-01-26T14:35:15;12.83;;;5.03;;
4810;SDS011;2419;51.276;6.472;2023-01-26T14:37:48;11.00;;;3.83;;
4810;SDS011;2419;51.276;6.472;2023-01-26T14:40:17;20.03;;;6.07;;
4810;SDS011;2419;51.276;6.472;2023-01-26T14:42:51;9.60;;;5.30;;
4810;SDS011;2419;51.276;6.472;2023-01-26T14:45:25;23.60;;;7.63;;
4810;SDS011;2419;51.276;6.472;2023-01-26T14:47:56;12.07;;;5.03;;
4810;SDS011;2419;51.276;6.472;2023-01-26T14:50:29;16.70;;;6.30;;
4810;SDS011;2419;51.276;6.472;2023-01-26T14:52:58;11.43;;;5.50;;
4810;SDS011;2419;51.276;6.472;2023-01-26T14:55:31;17.70;;;5.63;;
4810;SDS011;2419;51.276;6.472;2023-01-26T14:58:03;12.30;;;3.50;;
4810;SDS011;2419;51.276;6.472;2023-01-26T15:00:43;16.67;;;5.30;;
4810;SDS011;2419;51.276;6.472;2023-01-26T15:03:18;9.07;;;3.93;;
4810;SDS011;2419;51.276;6.472;2023-01-26T15:06:02;8.83;;;3.00;;
4810;SDS011;2419;51.276;6.472;2023-01-26T15:08:32;13.50;;;5.00;;
4810;SDS011;2419;51.276;6.472;2023-01-26T15:11:01;9.50;;;4.00;;
4810;SDS011;2419;51.276;6.472;2023-01-26T15:13:50;10.40;;;5.47;;
4810;SDS011;2419;51.276;6.472;2023-01-26T15:16:20;11.70;;;5.17;;
4810;SDS011;2419;51.276;6.472;2023-01-26T15:18:57;11.27;;;5.90;;
4810;SDS011;2419;51.276;6.472;2023-01-26T15:21:28;9.00;;;4.30;;
4810;SDS011;2419;51.276;6.472;2023-01-26T15:24:00;16.07;;;5.83;;
4810;SDS011;2419;51.276;6.472;2023-01-26T15:26:30;13.20;;;6.10;;
4810;SDS011;2419;51.276;6.472;2023-01-26T15:29:02;22.67;;;5.13;;
4810;SDS011;2419;51.276;6.472;2023-01-26T15:31:33;11.77;;;5.33;;
4810;SDS011;2419;51.276;6.472;2023-01-26T15:34:03;22.57;;;4.23;;
4810;SDS011;2419;51.276;6.472;2023-01-26T15:36:32;9.73;;;5.13;;
4810;SDS011;2419;51.276;6.472;2023-01-26T15:39:13;6.20;;;4.17;;
4810;SDS011;2419;51.276;6.472;2023-01-26T15:41:42;12.23;;;5.37;;
4810;SDS011;2419;51.276;6.472;2023-01-26T15:44:17;12.67;;;4.73;;
4810;SDS011;2419;51.276;6.472;2023-01-26T15:46:46;6.90;;;4.17;;
4810;SDS011;2419;51.276;6.472;2023-01-26T15:49:15;10.83;;;3.70;;
4810;SDS011;2419;51.276;6.472;2023-01-26T15:51:45;12.93;;;4.30;;